Time;durP1;ratioP1;P1;durP2;ratioP2;P2;SDS_P1;SDS_P2;PMS_P1;PMS_P2;Temp;Humidity;BMP_temperature;BMP_pressure;BME280_temperature;BME280_humidity;BME280_pressure;Samples;Min_cycle;Max_cycle;Signal;HPM_P1;HPM_P2
2021/12/01 00:01:09;;;;;;;;;1.00;1.00;;;;;;;;5083677;27;45998;-65
2021/12/01 00:03:34;;;;;;;;;0.75;0.75;;;;;;;;5078972;27;45505;-63
2021/12/01 00:05:59;;;;;;;;;1.75;1.75;;;;;;;;5078407;27;45432;-64
2021/12/01 00:08:25;;;;;;;;;2.50;2.25;;;;;;;;5088378;27;47434;-63
2021/12/01 00:10:50;;;;;;;;;1.00;1.00;;;;;;;;5112631;27;45483;-64
2021/12/01 00:13:18;;;;;;;;;2.25;2.25;;;;;;;;5093525;27;45792;-63
2021/12/01 00:15:44;;;;;;;;;1.25;1.25;;;;;;;;5093155;27;45441;-63
2021/12/01 00:18:09;;;;;;;;;2.00;2.00;;;;;;;;5087882;27;47878;-62
2021/12/01 00:20:35;;;;;;;;;3.00;2.00;;;;;;;;5108955;27;45397;-62
2021/12/01 00:23:00;;;;;;;;;1.00;1.00;;;;;;;;5093953;27;45523;-62
2021/12/01 00:25:26;;;;;;;;;3.75;3.75;;;;;;;;5109933;27;45506;-61
2021/12/01 00:27:52;;;;;;;;;3.00;3.00;;;;;;;;5111587;27;46912;-62
2021/12/01 00:30:18;;;;;;;;;5.00;3.75;;;;;;;;5111197;27;45939;-63
2021/12/01 00:32:44;;;;;;;;;3.50;3.50;;;;;;;;5111153;27;45466;-62
2021/12/01 00:35:09;;;;;;;;;3.25;3.00;;;;;;;;5112833;27;45400;-62
2021/12/01 00:37:35;;;;;;;;;4.00;4.00;;;;;;;;5108245;27;45778;-62
2021/12/01 00:40:01;;;;;;;;;6.00;6.00;;;;;;;;5107241;27;45548;-63
2021/12/01 00:42:26;;;;;;;;;6.00;6.00;;;;;;;;5108225;27;45482;-62
2021/12/01 00:45:01;;;;;;;;;6.00;6.00;;;;;;;;5109256;27;45557;-62
2021/12/01 00:50:26;;;;;;;;;3.00;3.00;;;;;;;;5084372;27;45658;-62
2021/12/01 00:52:53;;;;;;;;;3.75;3.75;;;;;;;;5091220;27;45413;-62
2021/12/01 00:55:18;;;;;;;;;5.00;5.00;;;;;;;;5088482;27;45527;-64
2021/12/01 00:57:44;;;;;;;;;5.25;4.75;;;;;;;;5105901;27;46443;-63
2021/12/01 01:00:09;;;;;;;;;2.50;2.50;;;;;;;;5099055;27;45526;-62
2021/12/01 01:02:38;;;;;;;;;4.00;4.00;;;;;;;;5076370;27;45339;-63
2021/12/01 01:05:06;;;;;;;;;3.00;2.00;;;;;;;;5109417;27;45636;-63
2021/12/01 01:07:32;;;;;;;;;4.75;4.50;;;;;;;;5106827;27;45967;-62
2021/12/01 01:10:04;;;;;;;;;5.75;5.00;;;;;;;;5107127;27;45621;-62
2021/12/01 01:18:08;;;;;;;;;4.00;4.00;;;;;;;;5108997;27;45719;-62
2021/12/01 01:20:33;;;;;;;;;6.25;4.50;;;;;;;;5110424;27;45663;-62
2021/12/01 01:22:59;;;;;;;;;3.00;3.00;;;;;;;;5109035;27;45320;-63
2021/12/01 01:25:24;;;;;;;;;2.75;2.75;;;;;;;;5107200;27;45415;-62
2021/12/01 01:27:49;;;;;;;;;1.75;1.75;;;;;;;;5106421;27;45766;-64
2021/12/01 01:30:15;;;;;;;;;4.00;3.00;;;;;;;;5082578;27;46651;-63
2021/12/01 01:32:40;;;;;;;;;2.00;1.00;;;;;;;;5110603;27;45501;-63
2021/12/01 01:35:06;;;;;;;;;2.00;2.00;;;;;;;;5109566;27;45624;-63
2021/12/01 01:37:32;;;;;;;;;5.25;2.00;;;;;;;;5110554;27;46506;-63
2021/12/01 01:39:57;;;;;;;;;1.00;1.00;;;;;;;;5087564;27;45451;-64
2021/12/01 01:42:22;;;;;;;;;2.25;1.75;;;;;;;;5101988;27;45371;-62
2021/12/01 01:44:47;;;;;;;;;0.25;0.25;;;;;;;;5093241;27;45708;-64
2021/12/01 01:47:13;;;;;;;;;2.00;2.00;;;;;;;;5112425;27;46427;-63
2021/12/01 01:49:49;;;;;;;;;2.00;2.00;;;;;;;;5092750;27;45726;-63
2021/12/01 01:52:14;;;;;;;;;3.00;2.00;;;;;;;;5110478;27;45551;-63
2021/12/01 01:54:40;;;;;;;;;3.00;2.00;;;;;;;;5091424;27;45535;-62
2021/12/01 01:57:05;;;;;;;;;2.00;2.00;;;;;;;;5110119;27;46341;-63
2021/12/01 01:59:30;;;;;;;;;3.00;2.25;;;;;;;;5114085;27;45570;-63
2021/12/01 02:01:57;;;;;;;;;2.00;2.00;;;;;;;;5093769;27;45433;-62
2021/12/01 02:04:23;;;;;;;;;4.00;2.75;;;;;;;;5091391;27;45641;-62
2021/12/01 02:06:49;;;;;;;;;2.67;2.67;;;;;;;;5090953;27;47301;-63
2021/12/01 02:09:15;;;;;;;;;4.50;3.50;;;;;;;;5091297;27;45588;-62
2021/12/01 02:11:41;;;;;;;;;2.25;2.25;;;;;;;;5114201;27;45996;-62
2021/12/01 02:14:06;;;;;;;;;1.50;1.50;;;;;;;;5076856;27;45716;-63
2021/12/01 02:16:32;;;;;;;;;1.00;0.50;;;;;;;;5082963;27;46150;-61
2021/12/01 02:18:57;;;;;;;;;2.00;1.00;;;;;;;;5085493;27;46090;-63
2021/12/01 02:21:28;;;;;;;;;1.00;1.00;;;;;;;;5109323;27;45334;-62
2021/12/01 02:23:56;;;;;;;;;1.00;1.00;;;;;;;;5111577;27;45588;-63
2021/12/01 02:26:22;;;;;;;;;0.00;0.00;;;;;;;;5111961;27;45406;-64
2021/12/01 02:28:51;;;;;;;;;0.00;0.00;;;;;;;;5111368;27;45627;-63
2021/12/01 02:31:17;;;;;;;;;2.00;0.33;;;;;;;;5090819;27;45523;-63
2021/12/01 02:33:42;;;;;;;;;1.00;1.00;;;;;;;;5091162;27;45410;-63
2021/12/01 02:36:09;;;;;;;;;0.75;0.75;;;;;;;;5093439;27;48065;-64
2021/12/01 02:38:34;;;;;;;;;0.75;0.75;;;;;;;;5097664;27;45399;-63
2021/12/01 02:40:59;;;;;;;;;1.00;1.00;;;;;;;;5111526;27;45313;-64
2021/12/01 02:43:24;;;;;;;;;4.00;3.00;;;;;;;;5108835;27;45436;-63
2021/12/01 02:45:54;;;;;;;;;0.25;0.00;;;;;;;;5109047;27;45511;-64
2021/12/01 02:48:19;;;;;;;;;1.00;1.00;;;;;;;;5108215;27;47177;-63
2021/12/01 02:50:44;;;;;;;;;2.00;2.00;;;;;;;;5113089;27;45459;-63
2021/12/01 02:53:09;;;;;;;;;1.50;1.50;;;;;;;;5111271;27;45655;-63
2021/12/01 02:55:39;;;;;;;;;2.00;2.00;;;;;;;;5082379;27;45850;-63
2021/12/01 02:58:04;;;;;;;;;2.50;2.00;;;;;;;;5100656;27;45323;-63
2021/12/01 03:00:30;;;;;;;;;3.25;2.00;;;;;;;;5101494;27;45431;-62
2021/12/01 03:02:57;;;;;;;;;3.00;2.75;;;;;;;;5102491;27;45473;-62
2021/12/01 03:05:23;;;;;;;;;1.00;1.00;;;;;;;;5097373;27;47830;-62
2021/12/01 03:07:49;;;;;;;;;1.75;1.75;;;;;;;;5110897;27;45527;-62
2021/12/01 03:10:14;;;;;;;;;1.00;1.00;;;;;;;;5084486;27;45634;-63
2021/12/01 03:12:40;;;;;;;;;5.75;3.00;;;;;;;;5101354;27;45551;-63
2021/12/01 03:15:11;;;;;;;;;1.75;1.75;;;;;;;;5109054;27;46933;-63
2021/12/01 03:17:37;;;;;;;;;2.00;2.00;;;;;;;;5097537;27;45707;-63
2021/12/01 03:20:04;;;;;;;;;3.00;3.00;;;;;;;;5110729;27;45445;-63
2021/12/01 03:22:29;;;;;;;;;1.00;1.00;;;;;;;;5108755;27;45399;-63
2021/12/01 03:24:55;;;;;;;;;2.00;2.00;;;;;;;;5108307;27;45777;-63
2021/12/01 03:27:20;;;;;;;;;0.75;0.75;;;;;;;;5107675;27;45431;-62
2021/12/01 03:29:47;;;;;;;;;3.75;1.00;;;;;;;;5093030;27;45642;-63
2021/12/01 03:32:13;;;;;;;;;0.00;0.00;;;;;;;;5111671;27;45360;-62
2021/12/01 03:34:40;;;;;;;;;1.50;1.00;;;;;;;;5109390;27;46508;-63
2021/12/01 03:37:06;;;;;;;;;1.00;1.00;;;;;;;;5103780;27;45412;-63
2021/12/01 03:39:31;;;;;;;;;1.00;1.00;;;;;;;;5100213;27;45490;-64
2021/12/01 03:41:56;;;;;;;;;0.25;0.25;;;;;;;;5098141;27;45486;-63
2021/12/01 03:44:22;;;;;;;;;0.50;0.50;;;;;;;;5097422;27;45519;-63
2021/12/01 03:46:47;;;;;;;;;1.00;1.00;;;;;;;;5098753;27;45446;-63
2021/12/01 03:49:12;;;;;;;;;0.00;0.00;;;;;;;;5081791;27;45480;-64
2021/12/01 03:51:38;;;;;;;;;1.00;1.00;;;;;;;;5099587;27;45427;-64
2021/12/01 03:54:03;;;;;;;;;0.00;0.00;;;;;;;;5079925;27;47723;-65
2021/12/01 03:56:30;;;;;;;;;0.67;0.67;;;;;;;;5077032;27;45565;-64
2021/12/01 03:58:56;;;;;;;;;0.00;0.00;;;;;;;;5097803;27;45353;-64
2021/12/01 04:01:21;;;;;;;;;2.00;1.00;;;;;;;;5099516;27;45381;-65
2021/12/01 04:03:46;;;;;;;;;0.00;0.00;;;;;;;;5081300;27;47991;-66
2021/12/01 04:06:11;;;;;;;;;1.00;1.00;;;;;;;;5099531;27;45380;-64
2021/12/01 04:08:37;;;;;;;;;1.00;0.00;;;;;;;;5095323;27;45317;-65
2021/12/01 04:11:03;;;;;;;;;1.00;1.00;;;;;;;;5110516;27;45605;-65
2021/12/01 04:13:28;;;;;;;;;0.67;0.67;;;;;;;;5099213;27;46023;-65
2021/12/01 04:15:53;;;;;;;;;1.00;1.00;;;;;;;;5080944;27;45959;-65
2021/12/01 04:18:18;;;;;;;;;0.00;0.00;;;;;;;;5099813;27;45355;-65
2021/12/01 04:20:43;;;;;;;;;0.00;0.00;;;;;;;;5077366;27;45406;-65
2021/12/01 04:23:09;;;;;;;;;1.67;0.00;;;;;;;;5096931;27;45322;-65
2021/12/01 04:25:34;;;;;;;;;1.75;0.25;;;;;;;;5099224;27;45325;-64
2021/12/01 04:28:00;;;;;;;;;0.00;0.00;;;;;;;;5099019;27;45685;-65
2021/12/01 04:30:26;;;;;;;;;1.67;0.00;;;;;;;;5099178;27;45523;-65
2021/12/01 04:32:52;;;;;;;;;0.00;0.00;;;;;;;;5096600;27;46491;-65
2021/12/01 04:35:19;;;;;;;;;1.00;0.00;;;;;;;;5078355;27;45503;-66
2021/12/01 04:37:46;;;;;;;;;0.00;0.00;;;;;;;;5080076;27;45558;-65
2021/12/01 04:40:12;;;;;;;;;0.00;0.00;;;;;;;;5099057;27;45750;-66
2021/12/01 04:42:38;;;;;;;;;0.00;0.00;;;;;;;;5080132;27;47918;-65
2021/12/01 04:45:04;;;;;;;;;0.00;0.00;;;;;;;;5098513;27;45424;-66
2021/12/01 04:47:33;;;;;;;;;0.00;0.00;;;;;;;;5076416;27;45865;-66
2021/12/01 04:49:59;;;;;;;;;0.00;0.00;;;;;;;;5079316;27;45411;-66
2021/12/01 04:52:24;;;;;;;;;0.25;0.25;;;;;;;;5098836;27;45754;-67
2021/12/01 04:54:49;;;;;;;;;0.75;0.75;;;;;;;;5099285;27;45642;-65
2021/12/01 04:57:16;;;;;;;;;0.33;0.33;;;;;;;;5098732;27;45435;-65
2021/12/01 04:59:41;;;;;;;;;0.33;0.33;;;;;;;;5095187;27;45298;-66
2021/12/01 05:02:06;;;;;;;;;1.00;1.00;;;;;;;;5078906;27;47886;-65
2021/12/01 05:04:32;;;;;;;;;0.25;0.25;;;;;;;;5099153;27;45316;-66
2021/12/01 05:06:58;;;;;;;;;0.00;0.00;;;;;;;;5098507;27;45648;-66
2021/12/01 05:09:23;;;;;;;;;1.25;1.25;;;;;;;;5098643;27;45557;-65
2021/12/01 05:11:48;;;;;;;;;1.00;1.00;;;;;;;;5103568;27;45717;-65
2021/12/01 05:14:14;;;;;;;;;0.00;0.00;;;;;;;;5114107;27;45391;-64
2021/12/01 05:16:41;;;;;;;;;0.00;0.00;;;;;;;;5111674;27;45420;-66
2021/12/01 05:19:06;;;;;;;;;1.00;0.00;;;;;;;;5111087;27;45393;-66
2021/12/01 05:21:32;;;;;;;;;0.00;0.00;;;;;;;;5110408;27;50007;-66
2021/12/01 05:23:57;;;;;;;;;0.50;0.50;;;;;;;;5112496;27;45626;-65
2021/12/01 05:26:23;;;;;;;;;0.00;0.00;;;;;;;;5110417;27;45747;-65
2021/12/01 05:28:48;;;;;;;;;0.00;0.00;;;;;;;;5101029;27;45512;-65
2021/12/01 05:31:13;;;;;;;;;0.00;0.00;;;;;;;;5104360;27;46009;-64
2021/12/01 05:33:40;;;;;;;;;0.00;0.00;;;;;;;;5104719;27;45559;-65
2021/12/01 05:36:05;;;;;;;;;0.50;0.00;;;;;;;;5108018;27;45851;-64
2021/12/01 05:38:31;;;;;;;;;0.00;0.00;;;;;;;;5105714;27;45283;-64
2021/12/01 05:40:56;;;;;;;;;0.00;0.00;;;;;;;;5100458;27;45491;-64
2021/12/01 05:43:21;;;;;;;;;0.00;0.00;;;;;;;;5091263;27;45295;-66
2021/12/01 05:45:47;;;;;;;;;0.00;0.00;;;;;;;;5101442;27;45464;-64
2021/12/01 05:48:13;;;;;;;;;0.00;0.00;;;;;;;;5083980;27;45608;-64
2021/12/01 05:50:38;;;;;;;;;0.00;0.00;;;;;;;;5091826;27;48524;-64
2021/12/01 05:53:04;;;;;;;;;0.00;0.00;;;;;;;;5099713;27;45511;-64
2021/12/01 05:55:29;;;;;;;;;0.00;0.00;;;;;;;;5086158;27;45451;-65
2021/12/01 05:57:54;;;;;;;;;0.00;0.00;;;;;;;;5107073;27;45269;-64
2021/12/01 06:00:20;;;;;;;;;0.00;0.00;;;;;;;;5088948;27;47903;-64
2021/12/01 06:02:49;;;;;;;;;1.00;0.00;;;;;;;;5087792;27;46147;-64
2021/12/01 06:05:14;;;;;;;;;0.00;0.00;;;;;;;;5101918;27;45443;-64
2021/12/01 06:07:39;;;;;;;;;0.00;0.00;;;;;;;;5105612;27;45435;-64
2021/12/01 06:10:05;;;;;;;;;0.00;0.00;;;;;;;;5105284;27;46438;-64
2021/12/01 06:12:32;;;;;;;;;0.00;0.00;;;;;;;;5101435;27;45593;-64
2021/12/01 06:14:58;;;;;;;;;0.33;0.00;;;;;;;;5098940;27;45841;-64
2021/12/01 06:17:23;;;;;;;;;0.00;0.00;;;;;;;;5097780;27;45666;-65
2021/12/01 06:19:48;;;;;;;;;1.67;0.00;;;;;;;;5099583;27;45694;-65
2021/12/01 06:22:14;;;;;;;;;0.00;0.00;;;;;;;;5081698;27;45425;-64
2021/12/01 06:24:41;;;;;;;;;0.00;0.00;;;;;;;;5107201;27;45418;-65
2021/12/01 06:27:06;;;;;;;;;0.00;0.00;;;;;;;;5114622;27;45402;-64
2021/12/01 06:29:32;;;;;;;;;0.00;0.00;;;;;;;;5099025;27;48204;-65
2021/12/01 06:31:57;;;;;;;;;2.00;0.00;;;;;;;;5112158;27;45556;-65
2021/12/01 06:34:23;;;;;;;;;0.00;0.00;;;;;;;;5091567;27;45472;-65
2021/12/01 06:36:48;;;;;;;;;0.00;0.00;;;;;;;;5090700;27;45566;-65
2021/12/01 06:39:13;;;;;;;;;0.00;0.00;;;;;;;;5109111;27;45507;-64
2021/12/01 06:41:38;;;;;;;;;0.33;0.33;;;;;;;;5113917;27;45947;-65
2021/12/01 06:44:04;;;;;;;;;0.00;0.00;;;;;;;;5111638;27;45391;-64
2021/12/01 06:46:30;;;;;;;;;1.00;1.00;;;;;;;;5108994;27;45257;-64
2021/12/01 06:48:56;;;;;;;;;0.00;0.00;;;;;;;;5087860;27;48700;-63
2021/12/01 06:51:21;;;;;;;;;0.00;0.00;;;;;;;;5100589;27;45398;-64
2021/12/01 06:53:47;;;;;;;;;0.00;0.00;;;;;;;;5078195;27;45744;-64
2021/12/01 06:56:12;;;;;;;;;0.00;0.00;;;;;;;;5098837;27;45761;-64
2021/12/01 06:58:37;;;;;;;;;0.00;0.00;;;;;;;;5082238;27;47268;-65
2021/12/01 07:01:05;;;;;;;;;0.33;0.33;;;;;;;;5082121;27;45495;-65
2021/12/01 07:03:31;;;;;;;;;1.00;0.00;;;;;;;;5100435;27;45919;-65
2021/12/01 07:05:56;;;;;;;;;0.00;0.00;;;;;;;;5098125;27;45560;-65
2021/12/01 07:08:21;;;;;;;;;0.67;0.00;;;;;;;;5097476;27;45471;-65
2021/12/01 07:10:47;;;;;;;;;0.00;0.00;;;;;;;;5080441;27;45435;-65
2021/12/01 07:13:12;;;;;;;;;0.00;0.00;;;;;;;;5089322;27;45406;-64
2021/12/01 07:15:37;;;;;;;;;1.00;0.00;;;;;;;;5110124;27;45624;-67
2021/12/01 07:18:02;;;;;;;;;0.00;0.00;;;;;;;;5112933;27;46274;-64
2021/12/01 07:20:28;;;;;;;;;0.00;0.00;;;;;;;;5097783;27;45859;-64
2021/12/01 07:22:53;;;;;;;;;1.00;0.00;;;;;;;;5085264;27;45337;-64
2021/12/01 07:25:18;;;;;;;;;0.00;0.00;;;;;;;;5110182;27;45444;-65
2021/12/01 07:27:44;;;;;;;;;0.00;0.00;;;;;;;;5108564;27;45806;-65
2021/12/01 07:30:10;;;;;;;;;0.00;0.00;;;;;;;;5082773;27;45587;-64
2021/12/01 07:32:36;;;;;;;;;0.00;0.00;;;;;;;;5097013;27;45566;-65
2021/12/01 07:35:01;;;;;;;;;0.00;0.00;;;;;;;;5100590;27;45186;-65
2021/12/01 07:37:26;;;;;;;;;0.00;0.00;;;;;;;;5082553;27;46557;-64
2021/12/01 07:39:52;;;;;;;;;0.00;0.00;;;;;;;;5101407;27;45286;-65
2021/12/01 07:42:17;;;;;;;;;0.67;0.00;;;;;;;;5101225;27;45440;-64
2021/12/01 07:44:42;;;;;;;;;1.00;1.00;;;;;;;;5097396;27;45847;-64
2021/12/01 07:47:08;;;;;;;;;0.00;0.00;;;;;;;;5104358;27;46035;-64
2021/12/01 07:49:34;;;;;;;;;0.00;0.00;;;;;;;;5110231;27;45572;-65
2021/12/01 07:52:00;;;;;;;;;0.00;0.00;;;;;;;;5091211;27;45530;-65
2021/12/01 07:54:25;;;;;;;;;0.00;0.00;;;;;;;;5091420;27;45462;-64
2021/12/01 07:56:50;;;;;;;;;0.00;0.00;;;;;;;;5112599;27;46729;-64
2021/12/01 07:59:16;;;;;;;;;0.00;0.00;;;;;;;;5112389;27;45426;-65
2021/12/01 08:01:42;;;;;;;;;0.33;0.00;;;;;;;;5110895;27;45325;-64
2021/12/01 08:04:07;;;;;;;;;0.00;0.00;;;;;;;;5109539;27;45486;-64
2021/12/01 08:06:33;;;;;;;;;0.00;0.00;;;;;;;;5108936;27;45728;-65
2021/12/01 08:09:01;;;;;;;;;0.00;0.00;;;;;;;;5097918;27;45423;-64
2021/12/01 08:11:27;;;;;;;;;0.00;0.00;;;;;;;;5096322;27;45923;-65
2021/12/01 08:13:52;;;;;;;;;0.00;0.00;;;;;;;;5099771;27;45535;-65
2021/12/01 08:16:18;;;;;;;;;0.00;0.00;;;;;;;;5082124;27;47545;-64
2021/12/01 08:18:43;;;;;;;;;0.00;0.00;;;;;;;;5101555;27;45661;-65
2021/12/01 08:21:08;;;;;;;;;0.00;0.00;;;;;;;;5094137;27;45475;-65
2021/12/01 08:23:34;;;;;;;;;0.25;0.25;;;;;;;;5096507;27;45480;-65
2021/12/01 08:25:59;;;;;;;;;0.00;0.00;;;;;;;;5115211;27;46391;-66
2021/12/01 08:28:24;;;;;;;;;2.00;0.67;;;;;;;;5112312;27;45549;-65
2021/12/01 08:30:50;;;;;;;;;2.00;1.00;;;;;;;;5113296;27;45647;-64
2021/12/01 08:33:15;;;;;;;;;1.00;1.00;;;;;;;;5110682;27;45364;-64
2021/12/01 08:35:40;;;;;;;;;0.67;0.67;;;;;;;;5095196;27;47766;-64
2021/12/01 08:38:06;;;;;;;;;1.00;1.00;;;;;;;;5111509;27;45640;-64
2021/12/01 08:40:31;;;;;;;;;0.00;0.00;;;;;;;;5076254;27;45503;-64
2021/12/01 08:42:56;;;;;;;;;2.00;2.00;;;;;;;;5085047;27;45567;-64
2021/12/01 08:45:21;;;;;;;;;0.67;0.67;;;;;;;;5091364;27;47671;-64
2021/12/01 08:47:48;;;;;;;;;0.00;0.00;;;;;;;;5078590;27;45531;-64
2021/12/01 08:50:13;;;;;;;;;0.00;0.00;;;;;;;;5098450;27;45341;-65
2021/12/01 08:52:39;;;;;;;;;0.00;0.00;;;;;;;;5100210;27;45462;-64
2021/12/01 08:55:05;;;;;;;;;0.33;0.33;;;;;;;;5100029;27;45761;-64
2021/12/01 08:57:30;;;;;;;;;1.00;1.00;;;;;;;;5100146;27;45537;-64
2021/12/01 08:59:56;;;;;;;;;0.00;0.00;;;;;;;;5079624;27;45399;-65
2021/12/01 09:02:21;;;;;;;;;0.00;0.00;;;;;;;;5097857;27;45734;-64
2021/12/01 09:04:51;;;;;;;;;0.00;0.00;;;;;;;;5081231;27;45487;-65
2021/12/01 09:07:17;;;;;;;;;1.00;1.00;;;;;;;;5087747;27;45610;-64
2021/12/01 09:09:43;;;;;;;;;0.00;0.00;;;;;;;;5108797;27;45399;-64
2021/12/01 09:12:08;;;;;;;;;1.00;1.00;;;;;;;;5108902;27;45966;-65
2021/12/01 09:14:33;;;;;;;;;0.00;0.00;;;;;;;;5112426;27;46004;-65
2021/12/01 09:16:59;;;;;;;;;0.33;0.33;;;;;;;;5092116;27;45550;-64
2021/12/01 09:19:24;;;;;;;;;0.00;0.00;;;;;;;;5089684;27;45403;-65
2021/12/01 09:21:50;;;;;;;;;1.33;1.00;;;;;;;;5108621;27;45586;-64
2021/12/01 09:24:15;;;;;;;;;0.00;0.00;;;;;;;;5111234;27;46370;-64
2021/12/01 09:26:41;;;;;;;;;0.00;0.00;;;;;;;;5095687;27;45499;-65
2021/12/01 09:29:07;;;;;;;;;0.00;0.00;;;;;;;;5098986;27;45429;-64
2021/12/01 09:31:32;;;;;;;;;0.00;0.00;;;;;;;;5105969;27;45600;-64
2021/12/01 09:33:57;;;;;;;;;2.00;0.00;;;;;;;;5096259;27;46517;-65
2021/12/01 09:36:23;;;;;;;;;0.00;0.00;;;;;;;;5099298;27;45373;-65
2021/12/01 09:38:49;;;;;;;;;0.00;0.00;;;;;;;;5106002;27;45585;-65
2021/12/01 09:41:14;;;;;;;;;0.00;0.00;;;;;;;;5098550;27;45490;-66
2021/12/01 09:43:40;;;;;;;;;0.00;0.00;;;;;;;;5080414;27;47177;-64
2021/12/01 09:46:08;;;;;;;;;0.00;0.00;;;;;;;;5080848;27;45456;-65
2021/12/01 09:48:33;;;;;;;;;0.00;0.00;;;;;;;;5105895;27;46308;-65
2021/12/01 09:50:59;;;;;;;;;1.00;0.00;;;;;;;;5107501;27;45463;-67
2021/12/01 09:53:24;;;;;;;;;0.00;0.00;;;;;;;;5115394;27;45668;-65
2021/12/01 09:55:49;;;;;;;;;0.00;0.00;;;;;;;;5095442;27;45364;-65
2021/12/01 09:58:16;;;;;;;;;0.00;0.00;;;;;;;;5109889;27;45626;-64
2021/12/01 10:00:45;;;;;;;;;1.67;0.00;;;;;;;;5091778;27;45655;-65
2021/12/01 10:03:11;;;;;;;;;0.00;0.00;;;;;;;;5106600;27;45725;-65
2021/12/01 10:05:46;;;;;;;;;1.00;0.00;;;;;;;;5097434;27;45995;-65
2021/12/01 10:08:16;;;;;;;;;0.00;0.00;;;;;;;;5113736;27;45494;-65
2021/12/01 10:10:41;;;;;;;;;0.00;0.00;;;;;;;;5112470;27;45277;-65
2021/12/01 10:13:07;;;;;;;;;0.33;0.33;;;;;;;;5107143;27;46215;-65
2021/12/01 10:15:32;;;;;;;;;0.00;0.00;;;;;;;;5102998;27;45420;-64
2021/12/01 10:18:11;;;;;;;;;1.00;1.00;;;;;;;;5100124;27;45335;-65
2021/12/01 10:20:37;;;;;;;;;0.00;0.00;;;;;;;;5092961;27;45542;-64
2021/12/01 10:23:11;;;;;;;;;1.00;1.00;;;;;;;;5101887;27;45882;-66
2021/12/01 10:25:36;;;;;;;;;0.00;0.00;;;;;;;;5089753;27;45520;-65
2021/12/01 10:28:01;;;;;;;;;0.67;0.67;;;;;;;;5087924;27;45753;-66
2021/12/01 10:30:43;;;;;;;;;0.00;0.00;;;;;;;;5110585;27;45372;-65
2021/12/01 10:33:10;;;;;;;;;0.00;0.00;;;;;;;;5092911;27;46013;-64
2021/12/01 10:35:36;;;;;;;;;0.67;0.67;;;;;;;;5115575;27;45454;-64
2021/12/01 10:38:01;;;;;;;;;1.00;0.00;;;;;;;;5113228;27;45400;-64
2021/12/01 10:40:27;;;;;;;;;1.00;1.00;;;;;;;;5084570;27;45388;-64
2021/12/01 10:43:11;;;;;;;;;1.00;1.00;;;;;;;;5105216;27;46832;-64
2021/12/01 10:45:45;;;;;;;;;1.25;1.25;;;;;;;;5110711;27;45619;-64
2021/12/01 10:48:18;;;;;;;;;1.00;1.00;;;;;;;;5111051;27;45488;-64
2021/12/01 10:50:43;;;;;;;;;1.75;1.75;;;;;;;;5099252;27;45596;-63
2021/12/01 10:53:13;;;;;;;;;1.50;1.50;;;;;;;;5112910;27;46297;-65
2021/12/01 10:55:43;;;;;;;;;1.00;1.00;;;;;;;;5102154;27;45838;-65
2021/12/01 10:58:09;;;;;;;;;1.00;1.00;;;;;;;;5083340;27;45517;-65
2021/12/01 11:00:39;;;;;;;;;2.25;1.25;;;;;;;;5101977;27;45298;-65
2021/12/01 11:03:07;;;;;;;;;1.67;1.67;;;;;;;;5100706;27;46484;-65
2021/12/01 11:05:40;;;;;;;;;1.00;1.00;;;;;;;;5079671;27;45326;-65
2021/12/01 11:08:19;;;;;;;;;3.00;2.75;;;;;;;;5093157;27;45396;-66
2021/12/01 11:10:45;;;;;;;;;4.00;2.25;;;;;;;;5111835;27;45463;-65
2021/12/01 11:13:11;;;;;;;;;1.00;1.00;;;;;;;;5110018;27;45692;-65
2021/12/01 11:15:41;;;;;;;;;2.00;1.00;;;;;;;;5105328;27;45586;-66
2021/12/01 11:18:07;;;;;;;;;1.67;1.00;;;;;;;;5102831;27;45340;-65
2021/12/01 11:20:41;;;;;;;;;1.67;1.67;;;;;;;;5089456;27;45445;-65
2021/12/01 11:23:11;;;;;;;;;0.00;0.00;;;;;;;;5103515;27;46403;-64
2021/12/01 11:25:37;;;;;;;;;3.00;2.00;;;;;;;;5095701;27;45863;-65
2021/12/01 11:28:08;;;;;;;;;2.00;1.00;;;;;;;;5112032;27;45560;-64
2021/12/01 11:30:34;;;;;;;;;3.50;3.00;;;;;;;;5101633;27;45569;-65
2021/12/01 11:32:59;;;;;;;;;1.00;1.00;;;;;;;;5079443;27;46037;-65
2021/12/01 11:35:24;;;;;;;;;2.67;1.33;;;;;;;;5097713;27;45487;-65
2021/12/01 11:37:55;;;;;;;;;2.00;0.67;;;;;;;;5104930;27;45954;-64
2021/12/01 11:40:21;;;;;;;;;2.33;1.00;;;;;;;;5107905;27;45718;-64
2021/12/01 11:42:47;;;;;;;;;1.00;1.00;;;;;;;;5109108;27;46602;-65
2021/12/01 11:45:13;;;;;;;;;1.33;0.67;;;;;;;;5109811;27;45317;-64
2021/12/01 11:47:41;;;;;;;;;0.33;0.33;;;;;;;;5088263;27;45515;-66
2021/12/01 11:50:09;;;;;;;;;1.33;1.33;;;;;;;;5101148;27;45509;-65
2021/12/01 11:52:42;;;;;;;;;2.00;1.00;;;;;;;;5082506;27;47707;-66
2021/12/01 11:55:07;;;;;;;;;3.00;1.00;;;;;;;;5100822;27;45475;-66
2021/12/01 11:57:39;;;;;;;;;2.00;2.00;;;;;;;;5080611;27;45645;-65
2021/12/01 12:00:05;;;;;;;;;2.67;1.67;;;;;;;;5106590;27;45680;-65
2021/12/01 12:02:30;;;;;;;;;2.00;2.00;;;;;;;;5105254;27;47434;-65
2021/12/01 12:04:57;;;;;;;;;4.00;2.00;;;;;;;;5100972;27;45440;-64
2021/12/01 12:07:25;;;;;;;;;4.00;4.00;;;;;;;;5104443;27;46027;-63
2021/12/01 12:10:05;;;;;;;;;2.33;2.00;;;;;;;;5104718;27;45534;-65
2021/12/01 12:12:43;;;;;;;;;2.33;2.33;;;;;;;;5099230;27;45746;-66
2021/12/01 12:15:08;;;;;;;;;2.00;2.00;;;;;;;;5105947;27;45494;-66
2021/12/01 12:17:35;;;;;;;;;2.33;2.33;;;;;;;;5107015;27;45489;-65
2021/12/01 12:20:03;;;;;;;;;4.00;2.00;;;;;;;;5104126;27;45629;-67
2021/12/01 12:22:39;;;;;;;;;1.00;1.00;;;;;;;;5098967;27;46037;-66
2021/12/01 12:25:10;;;;;;;;;4.67;4.00;;;;;;;;5105318;27;45490;-67
2021/12/01 12:27:37;;;;;;;;;2.50;1.00;;;;;;;;5109213;27;45787;-64
2021/12/01 12:30:04;;;;;;;;;5.75;5.00;;;;;;;;5110396;27;45416;-65
2021/12/01 12:32:30;;;;;;;;;3.00;2.00;;;;;;;;5096933;27;45479;-64
2021/12/01 12:34:57;;;;;;;;;1.00;1.00;;;;;;;;5079267;27;45533;-65
2021/12/01 12:37:30;;;;;;;;;2.67;1.00;;;;;;;;5112288;27;45498;-64
2021/12/01 12:39:56;;;;;;;;;1.00;1.00;;;;;;;;5092816;27;45390;-66
2021/12/01 12:42:22;;;;;;;;;5.50;3.25;;;;;;;;5098400;27;46151;-67
2021/12/01 12:44:52;;;;;;;;;3.00;1.00;;;;;;;;5098489;27;45548;-65
2021/12/01 12:47:40;;;;;;;;;4.00;4.00;;;;;;;;5098455;27;45784;-65
2021/12/01 12:50:11;;;;;;;;;14.25;13.00;;;;;;;;5104489;27;45605;-66
2021/12/01 12:52:38;;;;;;;;;7.75;7.75;;;;;;;;5100376;27;45556;-65
2021/12/01 12:55:15;;;;;;;;;3.25;3.00;;;;;;;;5088806;27;46448;-66
2021/12/01 12:57:59;;;;;;;;;4.50;3.00;;;;;;;;5106694;27;45471;-65
2021/12/01 13:00:30;;;;;;;;;1.75;1.00;;;;;;;;5098231;27;46608;-65
2021/12/01 13:02:57;;;;;;;;;3.50;2.25;;;;;;;;5099998;27;45590;-65
2021/12/01 13:05:39;;;;;;;;;7.75;5.25;;;;;;;;5098788;27;45507;-65
2021/12/01 13:08:22;;;;;;;;;6.00;6.00;;;;;;;;5110435;27;45486;-65
2021/12/01 13:10:48;;;;;;;;;3.50;3.25;;;;;;;;5100982;27;45576;-65
2021/12/01 13:13:19;;;;;;;;;5.00;4.00;;;;;;;;5098982;27;45541;-66
2021/12/01 13:15:48;;;;;;;;;2.00;2.00;;;;;;;;5105593;27;45876;-66
2021/12/01 13:18:16;;;;;;;;;11.50;9.25;;;;;;;;5096832;27;45405;-64
2021/12/01 13:20:43;;;;;;;;;5.00;5.00;;;;;;;;5114653;27;45450;-63
2021/12/01 13:23:21;;;;;;;;;13.75;8.25;;;;;;;;5113344;27;46881;-63
2021/12/01 13:25:57;;;;;;;;;6.00;5.00;;;;;;;;5109923;27;45501;-63
2021/12/01 13:28:33;;;;;;;;;2.25;2.25;;;;;;;;5088637;27;45476;-64
2021/12/01 13:31:04;;;;;;;;;5.25;5.25;;;;;;;;5108624;27;45442;-64
2021/12/01 13:33:29;;;;;;;;;2.75;2.00;;;;;;;;5110815;27;46948;-63
2021/12/01 13:35:55;;;;;;;;;2.00;2.00;;;;;;;;5095319;27;45642;-64
2021/12/01 13:38:27;;;;;;;;;3.00;2.00;;;;;;;;5086871;27;45452;-65
2021/12/01 13:40:52;;;;;;;;;0.25;0.25;;;;;;;;5112264;27;45948;-65
2021/12/01 13:43:19;;;;;;;;;2.00;1.00;;;;;;;;5111041;27;46869;-63
2021/12/01 13:45:54;;;;;;;;;1.33;1.33;;;;;;;;5117541;27;45566;-64
2021/12/01 13:48:19;;;;;;;;;1.25;1.00;;;;;;;;5094247;27;45575;-65
2021/12/01 13:50:45;;;;;;;;;1.50;1.50;;;;;;;;5098230;27;47329;-65
2021/12/01 13:53:10;;;;;;;;;2.00;2.00;;;;;;;;5101224;27;45701;-65
2021/12/01 13:55:40;;;;;;;;;2.25;1.25;;;;;;;;5114932;27;45410;-65
2021/12/01 13:58:13;;;;;;;;;2.50;1.00;;;;;;;;5106477;27;45491;-65
2021/12/01 14:00:40;;;;;;;;;2.00;2.00;;;;;;;;5089304;27;46007;-65
2021/12/01 14:03:14;;;;;;;;;2.00;2.00;;;;;;;;5101590;27;46279;-65
2021/12/01 14:05:41;;;;;;;;;4.75;4.50;;;;;;;;5099099;27;45546;-65
2021/12/01 14:08:06;;;;;;;;;2.00;2.00;;;;;;;;5113054;27;45427;-65
2021/12/01 14:10:35;;;;;;;;;1.00;0.00;;;;;;;;5111103;27;45473;-64
2021/12/01 14:13:00;;;;;;;;;1.00;1.00;;;;;;;;5112334;27;45927;-64
2021/12/01 14:15:27;;;;;;;;;0.00;0.00;;;;;;;;5110377;27;45400;-65
2021/12/01 14:17:52;;;;;;;;;1.00;1.00;;;;;;;;5113637;27;45467;-64
2021/12/01 14:20:17;;;;;;;;;2.00;2.00;;;;;;;;5113125;27;45486;-65
2021/12/01 14:22:46;;;;;;;;;1.00;0.00;;;;;;;;5102600;27;45484;-65
2021/12/01 14:25:12;;;;;;;;;3.00;3.00;;;;;;;;5101761;27;45413;-65
2021/12/01 14:27:38;;;;;;;;;2.00;2.00;;;;;;;;5111849;27;45519;-65
2021/12/01 14:30:06;;;;;;;;;1.00;1.00;;;;;;;;5091519;27;45455;-65
2021/12/01 14:32:31;;;;;;;;;6.75;4.00;;;;;;;;5106430;27;46239;-65
2021/12/01 14:35:02;;;;;;;;;5.00;3.00;;;;;;;;5084831;27;45547;-65
2021/12/01 14:37:28;;;;;;;;;3.25;3.25;;;;;;;;5113195;27;45324;-64
2021/12/01 14:40:03;;;;;;;;;3.25;3.25;;;;;;;;5095072;27;45576;-64
2021/12/01 14:42:28;;;;;;;;;1.00;1.00;;;;;;;;5100434;27;45705;-65
2021/12/01 14:45:01;;;;;;;;;2.00;2.00;;;;;;;;5101538;27;45561;-65
2021/12/01 14:47:27;;;;;;;;;6.25;6.25;;;;;;;;5102051;27;45427;-65
2021/12/01 14:49:53;;;;;;;;;5.00;3.00;;;;;;;;5082248;27;45381;-66